createdAt,value
2018-03-06T00:00:23.631Z,1.92
2018-03-06T00:01:23.558Z,1.95
2018-03-06T00:02:23.430Z,1.92
2018-03-06T00:03:23.351Z,1.81
2018-03-06T00:04:23.266Z,1.88
2018-03-06T00:05:23.174Z,1.87
2018-03-06T00:06:23.105Z,1.78
2018-03-06T00:07:23.048Z,1.81
2018-03-06T00:08:22.989Z,1.78
2018-03-06T00:09:22.826Z,1.76
2018-03-06T00:10:22.779Z,1.77
2018-03-06T00:11:22.640Z,1.80
2018-03-06T00:12:22.554Z,1.77
2018-03-06T00:13:22.471Z,1.76
2018-03-06T00:14:22.431Z,1.70
2018-03-06T00:15:22.299Z,1.68
2018-03-06T00:16:22.211Z,1.70
2018-03-06T00:17:22.198Z,1.66
2018-03-06T00:18:22.066Z,1.71
2018-03-06T00:19:21.968Z,1.67
2018-03-06T00:20:21.967Z,1.67
2018-03-06T00:21:21.817Z,1.60
2018-03-06T00:22:21.744Z,1.66
2018-03-06T00:23:21.665Z,1.60
2018-03-06T00:24:21.539Z,1.73
2018-03-06T00:25:21.493Z,1.58
2018-03-06T00:26:21.417Z,1.60
2018-03-06T00:27:21.450Z,1.66
2018-03-06T00:28:21.229Z,1.56
2018-03-06T00:29:21.115Z,1.60
2018-03-06T00:30:21.068Z,1.67
2018-03-06T00:31:20.964Z,1.60
2018-03-06T00:32:20.876Z,1.67
2018-03-06T00:33:20.799Z,1.60
2018-03-06T00:34:20.719Z,1.58
2018-03-06T00:35:20.599Z,1.53
2018-03-06T00:36:20.513Z,1.58
2018-03-06T00:37:20.430Z,1.62
2018-03-06T00:38:20.356Z,1.58
2018-03-06T00:39:20.235Z,1.56
2018-03-06T00:40:20.152Z,1.49
2018-03-06T00:41:20.065Z,1.58
2018-03-06T00:42:19.978Z,1.56
2018-03-06T00:43:19.891Z,1.44
2018-03-06T00:44:19.818Z,1.52
2018-03-06T00:45:19.768Z,1.53
2018-03-06T00:46:19.699Z,1.52
2018-03-06T00:47:19.600Z,1.55
2018-03-06T00:48:19.462Z,1.49
2018-03-06T00:49:19.416Z,1.62
2018-03-06T00:50:19.291Z,1.62
2018-03-06T00:51:19.216Z,1.44
2018-03-06T00:52:19.118Z,1.52
2018-03-06T00:53:19.102Z,1.53
2018-03-06T00:54:18.981Z,1.45
2018-03-06T00:55:18.883Z,1.52
2018-03-06T00:56:18.811Z,1.48
2018-03-06T00:57:18.742Z,1.49
2018-03-06T00:58:18.602Z,1.49
2018-03-06T00:59:18.537Z,1.49
2018-03-06T01:00:18.474Z,1.56
2018-03-06T01:01:18.362Z,1.50
2018-03-06T01:02:18.302Z,1.44
2018-03-06T01:03:18.228Z,1.49
2018-03-06T01:04:18.106Z,1.42
2018-03-06T01:05:18.075Z,1.34
2018-03-06T01:06:17.940Z,1.41
2018-03-06T01:07:17.874Z,1.40
2018-03-06T01:08:17.778Z,1.44
2018-03-06T01:09:17.720Z,1.40
2018-03-06T01:10:17.625Z,1.37
2018-03-06T01:11:17.505Z,1.38
2018-03-06T01:12:17.420Z,1.42
2018-03-06T01:13:17.356Z,1.42
2018-03-06T01:14:17.237Z,1.31
2018-03-06T01:15:17.203Z,1.31
2018-03-06T01:16:17.109Z,1.31
2018-03-06T01:17:17.000Z,1.23
2018-03-06T01:18:16.899Z,1.23
2018-03-06T01:19:16.815Z,1.24
2018-03-06T01:20:16.779Z,1.19
2018-03-06T01:21:16.662Z,1.23
2018-03-06T01:22:16.600Z,1.08
2018-03-06T01:23:16.507Z,1.10
2018-03-06T01:24:16.384Z,1.14
2018-03-06T01:25:16.273Z,1.05
2018-03-06T01:26:16.190Z,1.13
2018-03-06T01:27:16.101Z,1.12
2018-03-06T01:28:16.055Z,1.17
2018-03-06T01:29:15.932Z,1.10
2018-03-06T01:30:15.843Z,1.12
2018-03-06T01:31:15.756Z,1.13
2018-03-06T01:32:15.671Z,1.13
2018-03-06T01:33:15.649Z,1.13
2018-03-06T01:34:15.563Z,1.12
2018-03-06T01:35:15.470Z,1.12
2018-03-06T01:36:15.378Z,1.13
2018-03-06T01:37:15.252Z,1.12
2018-03-06T01:38:15.209Z,1.16
2018-03-06T01:39:15.067Z,1.16
2018-03-06T01:40:14.994Z,1.16
2018-03-06T01:41:14.960Z,1.13
2018-03-06T01:42:14.872Z,1.13
2018-03-06T01:43:14.751Z,1.10
2018-03-06T01:44:14.664Z,1.10
2018-03-06T01:45:14.568Z,1.16
2018-03-06T01:46:14.490Z,1.14
2018-03-06T01:47:14.431Z,1.10
2018-03-06T01:48:14.325Z,1.08
2018-03-06T01:49:14.248Z,1.13
2018-03-06T01:50:14.154Z,0.95
2018-03-06T01:51:14.034Z,1.01
2018-03-06T01:52:13.983Z,0.99
2018-03-06T01:53:13.897Z,0.96
2018-03-06T01:54:13.815Z,0.99
2018-03-06T01:55:13.743Z,0.99
2018-03-06T01:56:13.633Z,1.01
2018-03-06T01:57:13.537Z,1.02
2018-03-06T01:58:13.466Z,0.96
2018-03-06T01:59:13.405Z,0.95
2018-03-06T02:00:13.303Z,0.98
2018-03-06T02:01:13.208Z,1.01
2018-03-06T02:02:13.130Z,0.95
2018-03-06T02:03:13.056Z,0.98
2018-03-06T02:04:12.949Z,0.92
2018-03-06T02:05:12.886Z,0.92
2018-03-06T02:06:12.750Z,0.94
2018-03-06T02:07:12.701Z,0.94
2018-03-06T02:08:12.607Z,0.95
2018-03-06T02:09:12.524Z,0.98
2018-03-06T02:10:12.404Z,0.95
2018-03-06T02:11:12.352Z,0.98
2018-03-06T02:12:12.234Z,0.94
2018-03-06T02:13:12.194Z,0.98
2018-03-06T02:14:12.073Z,1.05
2018-03-06T02:15:12.018Z,0.94
2018-03-06T02:16:11.870Z,0.94
2018-03-06T02:17:11.828Z,1.01
2018-03-06T02:18:11.742Z,0.98
2018-03-06T02:19:11.651Z,0.94
2018-03-06T02:20:11.560Z,0.92
2018-03-06T02:21:11.469Z,0.91
2018-03-06T02:22:11.400Z,0.94
2018-03-06T02:23:11.262Z,0.81
2018-03-06T02:24:11.177Z,0.83
2018-03-06T02:25:11.088Z,0.77
2018-03-06T02:26:11.005Z,0.83
2018-03-06T02:27:10.973Z,0.68
2018-03-06T02:28:10.831Z,0.63
2018-03-06T02:29:10.742Z,0.66
2018-03-06T02:30:10.667Z,0.63
2018-03-06T02:31:10.569Z,0.70
2018-03-06T02:32:10.485Z,0.70
2018-03-06T02:33:10.396Z,0.66
2018-03-06T02:34:10.315Z,0.78
2018-03-06T02:35:10.222Z,0.62
2018-03-06T02:36:10.137Z,0.63
2018-03-06T02:37:10.052Z,0.69
2018-03-06T02:38:09.966Z,0.69
2018-03-06T02:39:09.875Z,0.60
2018-03-06T02:40:09.793Z,0.66
2018-03-06T02:41:09.723Z,0.62
2018-03-06T02:42:09.623Z,0.68
2018-03-06T02:43:09.547Z,0.70
2018-03-06T02:44:09.464Z,0.69
2018-03-06T02:45:09.391Z,0.74
2018-03-06T02:46:09.281Z,0.66
2018-03-06T02:47:09.271Z,0.65
2018-03-06T02:48:09.111Z,0.63
2018-03-06T02:49:09.070Z,0.68
2018-03-06T02:50:08.924Z,0.69
2018-03-06T02:51:08.895Z,0.65
2018-03-06T02:52:08.786Z,0.66
2018-03-06T02:53:08.673Z,0.63
2018-03-06T02:54:09.285Z,0.62
2018-03-06T02:55:08.553Z,0.69
2018-03-06T02:56:08.423Z,0.68
2018-03-06T02:57:08.353Z,0.68
2018-03-06T02:58:08.271Z,0.60
2018-03-06T02:59:08.175Z,0.59
2018-03-06T03:00:08.081Z,0.65
2018-03-06T03:01:08.020Z,0.66
2018-03-06T03:02:07.880Z,0.63
2018-03-06T03:03:07.828Z,0.63
2018-03-06T03:04:07.754Z,0.60
2018-03-06T03:05:07.752Z,0.58
2018-03-06T03:06:07.616Z,0.66
2018-03-06T03:07:07.482Z,0.66
2018-03-06T03:08:07.380Z,0.65
2018-03-06T03:09:07.315Z,0.63
2018-03-06T03:10:07.230Z,0.63
2018-03-06T03:11:07.144Z,0.69
2018-03-06T03:12:07.062Z,0.66
2018-03-06T03:13:06.964Z,0.70
2018-03-06T03:14:06.900Z,0.66
2018-03-06T03:15:06.813Z,0.70
2018-03-06T03:16:06.735Z,0.66
2018-03-06T03:17:06.623Z,0.78
2018-03-06T03:18:06.531Z,0.77
2018-03-06T03:19:06.456Z,0.86
2018-03-06T03:20:06.339Z,0.81
2018-03-06T03:21:06.278Z,0.88
2018-03-06T03:22:06.146Z,0.83
2018-03-06T03:23:06.118Z,0.88
2018-03-06T03:24:06.091Z,0.87
2018-03-06T03:25:05.942Z,0.94
2018-03-06T03:26:05.849Z,0.94
2018-03-06T03:27:05.735Z,0.91
2018-03-06T03:28:05.687Z,0.98
2018-03-06T03:29:05.587Z,0.94
2018-03-06T03:30:05.504Z,0.84
2018-03-06T03:31:05.427Z,0.92
2018-03-06T03:32:05.302Z,0.91
2018-03-06T03:33:05.242Z,0.78
2018-03-06T03:34:05.164Z,0.80
2018-03-06T03:35:05.046Z,0.80
2018-03-06T03:36:04.981Z,0.94
2018-03-06T03:37:04.848Z,0.76
2018-03-06T03:38:04.761Z,0.87
2018-03-06T03:39:04.673Z,0.87
2018-03-06T03:40:04.587Z,0.83
2018-03-06T03:41:04.501Z,0.84
2018-03-06T03:42:04.417Z,0.86
2018-03-06T03:43:04.327Z,0.80
2018-03-06T03:44:04.242Z,0.83
2018-03-06T03:45:04.157Z,0.83
2018-03-06T03:46:04.093Z,0.86
2018-03-06T03:47:03.991Z,0.80
2018-03-06T03:48:03.894Z,0.84
2018-03-06T03:49:03.811Z,0.77
2018-03-06T03:50:03.728Z,0.87
2018-03-06T03:51:03.641Z,0.83
2018-03-06T03:52:03.550Z,0.78
2018-03-06T03:53:03.462Z,0.63
2018-03-06T03:54:03.376Z,0.69
2018-03-06T03:55:03.288Z,0.66
2018-03-06T03:56:03.220Z,0.63
2018-03-06T03:57:03.117Z,0.65
2018-03-06T03:58:03.032Z,0.63
2018-03-06T03:59:02.947Z,0.68
2018-03-06T04:00:02.857Z,0.65
2018-03-06T04:01:02.768Z,0.77
2018-03-06T04:02:02.685Z,0.76
2018-03-06T04:03:02.599Z,0.68
2018-03-06T04:04:02.535Z,0.77
2018-03-06T04:05:02.429Z,0.84
2018-03-06T04:06:02.338Z,0.78
2018-03-06T04:07:02.250Z,0.83
2018-03-06T04:08:02.217Z,0.73
2018-03-06T04:09:02.119Z,0.78
2018-03-06T04:10:02.034Z,0.74
2018-03-06T04:11:01.939Z,0.77
2018-03-06T04:12:01.858Z,0.81
2018-03-06T04:13:01.768Z,0.83
2018-03-06T04:14:01.684Z,0.83
2018-03-06T04:15:01.599Z,0.87
2018-03-06T04:16:01.510Z,0.84
2018-03-06T04:17:01.429Z,0.86
2018-03-06T04:18:01.339Z,0.81
2018-03-06T04:19:01.251Z,0.80
2018-03-06T04:20:01.160Z,0.84
2018-03-06T04:21:01.126Z,0.86
2018-03-06T04:22:00.991Z,0.83
2018-03-06T04:23:00.913Z,0.80
2018-03-06T04:24:00.818Z,0.84
2018-03-06T04:25:00.727Z,0.91
2018-03-06T04:26:00.643Z,0.81
2018-03-06T04:27:00.562Z,0.94
2018-03-06T04:28:00.478Z,0.92
2018-03-06T04:29:00.383Z,0.81
2018-03-06T04:30:00.302Z,0.86
2018-03-06T04:31:00.216Z,0.87
2018-03-06T04:32:00.125Z,0.91
2018-03-06T04:33:00.043Z,0.87
2018-03-06T04:33:59.911Z,0.94
2018-03-06T04:34:59.823Z,0.84
2018-03-06T04:35:59.738Z,0.81
2018-03-06T04:36:59.654Z,0.80
2018-03-06T04:37:59.568Z,0.80
2018-03-06T04:38:59.479Z,0.86
2018-03-06T04:39:59.391Z,0.77
2018-03-06T04:40:59.305Z,0.83
2018-03-06T04:41:59.220Z,0.80
2018-03-06T04:42:59.132Z,0.76
2018-03-06T04:43:59.046Z,0.86
2018-03-06T04:44:58.963Z,0.88
2018-03-06T04:45:58.876Z,0.76
2018-03-06T04:46:58.784Z,0.81
2018-03-06T04:47:58.700Z,0.83
2018-03-06T04:48:58.615Z,0.77
2018-03-06T04:49:58.526Z,0.83
2018-03-06T04:50:58.440Z,0.80
2018-03-06T04:51:58.352Z,0.80
2018-03-06T04:52:58.267Z,0.86
2018-03-06T04:53:58.183Z,0.88
2018-03-06T04:54:58.095Z,0.83
2018-03-06T04:55:58.007Z,0.78
2018-03-06T04:56:57.923Z,0.74
2018-03-06T04:57:57.835Z,0.83
2018-03-06T04:58:57.765Z,0.84
2018-03-06T04:59:57.662Z,0.74
2018-03-06T05:00:57.573Z,0.80
2018-03-06T05:01:57.489Z,0.81
2018-03-06T05:02:57.418Z,0.83
2018-03-06T05:03:57.320Z,0.83
2018-03-06T05:04:57.257Z,0.86
2018-03-06T05:05:57.143Z,0.78
2018-03-06T05:06:57.059Z,0.88
2018-03-06T05:07:56.972Z,0.81
2018-03-06T05:08:56.886Z,0.80
2018-03-06T05:09:56.799Z,0.86
2018-03-06T05:10:56.709Z,0.83
2018-03-06T05:11:56.622Z,0.78
2018-03-06T05:12:56.538Z,0.84
2018-03-06T05:13:56.449Z,0.83
2018-03-06T05:14:56.362Z,0.74
2018-03-06T05:15:56.275Z,0.76
2018-03-06T05:16:56.220Z,0.77
2018-03-06T05:17:56.104Z,0.78
2018-03-06T05:18:56.056Z,0.78
2018-03-06T05:19:55.938Z,0.83
2018-03-06T05:20:55.842Z,0.83
2018-03-06T05:21:55.757Z,0.81
2018-03-06T05:22:55.668Z,0.94
2018-03-06T05:23:55.588Z,0.96
2018-03-06T05:24:55.497Z,0.86
2018-03-06T05:25:55.417Z,0.98
2018-03-06T05:26:55.360Z,1.02
2018-03-06T05:27:55.234Z,1.01
2018-03-06T05:28:55.152Z,0.98
2018-03-06T05:29:55.066Z,0.92
2018-03-06T05:30:54.977Z,0.95
2018-03-06T05:31:54.889Z,0.99
2018-03-06T05:32:54.802Z,0.84
2018-03-06T05:33:54.721Z,0.91
2018-03-06T05:34:54.631Z,0.92
2018-03-06T05:35:54.542Z,0.95
2018-03-06T05:36:54.455Z,0.95
2018-03-06T05:37:54.374Z,0.94
2018-03-06T05:38:54.283Z,1.01
2018-03-06T05:39:54.201Z,0.96
2018-03-06T05:40:54.112Z,0.92
2018-03-06T05:41:54.025Z,0.92
2018-03-06T05:42:53.941Z,0.84
2018-03-06T05:43:53.852Z,0.88
2018-03-06T05:44:53.766Z,0.91
2018-03-06T05:45:53.680Z,0.84
2018-03-06T05:46:53.595Z,0.92
2018-03-06T05:47:53.506Z,0.88
2018-03-06T05:48:53.436Z,0.74
2018-03-06T05:49:53.335Z,0.84
2018-03-06T05:50:53.245Z,0.91
2018-03-06T05:51:53.160Z,0.81
2018-03-06T05:52:53.073Z,0.91
2018-03-06T05:53:52.996Z,0.84
2018-03-06T05:54:52.904Z,0.86
2018-03-06T05:55:52.814Z,0.84
2018-03-06T05:56:52.728Z,0.80
2018-03-06T05:57:52.642Z,0.81
2018-03-06T05:58:52.552Z,0.81
2018-03-06T05:59:54.398Z,0.87
2018-03-06T06:00:52.383Z,0.83
2018-03-06T06:01:52.293Z,0.86
2018-03-06T06:02:52.210Z,0.80
2018-03-06T06:03:52.150Z,0.83
2018-03-06T06:04:52.049Z,0.76
2018-03-06T06:05:51.948Z,0.78
2018-03-06T06:06:51.861Z,0.74
2018-03-06T06:07:51.774Z,0.78
2018-03-06T06:08:51.688Z,0.78
2018-03-06T06:09:51.600Z,0.74
2018-03-06T06:10:51.514Z,0.78
2018-03-06T06:11:51.428Z,0.80
2018-03-06T06:12:51.340Z,0.80
2018-03-06T06:13:51.254Z,0.81
2018-03-06T06:14:51.169Z,0.78
2018-03-06T06:15:51.081Z,0.81
2018-03-06T06:16:51.002Z,0.86
2018-03-06T06:17:50.911Z,0.92
2018-03-06T06:18:50.821Z,0.92
2018-03-06T06:19:50.734Z,1.02
2018-03-06T06:20:50.646Z,0.94
2018-03-06T06:21:50.562Z,0.94
2018-03-06T06:22:50.475Z,1.02
2018-03-06T06:23:50.390Z,0.98
2018-03-06T06:24:50.301Z,0.96
2018-03-06T06:25:50.217Z,0.95
2018-03-06T06:26:50.130Z,0.98
2018-03-06T06:27:50.042Z,0.94
2018-03-06T06:28:49.954Z,0.98
2018-03-06T06:29:49.875Z,1.05
2018-03-06T06:30:49.783Z,1.12
2018-03-06T06:31:49.709Z,1.14
2018-03-06T06:32:49.615Z,1.10
2018-03-06T06:33:49.544Z,1.13
2018-03-06T06:34:49.436Z,1.20
2018-03-06T06:35:49.349Z,1.13
2018-03-06T06:36:49.266Z,1.30
2018-03-06T06:37:49.187Z,1.28
2018-03-06T06:38:49.090Z,1.31
2018-03-06T06:39:49.005Z,1.22
2018-03-06T06:40:48.929Z,1.37
2018-03-06T06:41:48.835Z,1.34
2018-03-06T06:42:48.747Z,1.40
2018-03-06T06:43:48.666Z,1.50
2018-03-06T06:44:48.594Z,1.49
2018-03-06T06:45:48.489Z,1.52
2018-03-06T06:46:48.404Z,1.48
2018-03-06T06:47:48.323Z,1.49
2018-03-06T06:48:48.230Z,1.56
2018-03-06T06:49:48.149Z,1.58
2018-03-06T06:50:48.058Z,1.67
2018-03-06T06:51:47.973Z,1.67
2018-03-06T06:52:47.888Z,1.60
2018-03-06T06:53:47.800Z,1.66
2018-03-06T06:54:47.712Z,1.73
2018-03-06T06:55:47.637Z,1.67
2018-03-06T06:56:47.541Z,1.77
2018-03-06T06:57:47.465Z,1.78
2018-03-06T06:58:47.379Z,1.85
2018-03-06T06:59:47.300Z,1.87
2018-03-06T07:00:47.222Z,1.89
2018-03-06T07:01:47.116Z,1.81
2018-03-06T07:02:47.032Z,1.87
2018-03-06T07:03:46.945Z,1.99
2018-03-06T07:04:46.859Z,1.99
2018-03-06T07:05:46.772Z,1.99
2018-03-06T07:06:46.684Z,2.07
2018-03-06T07:07:46.601Z,2.08
2018-03-06T07:08:46.515Z,2.10
2018-03-06T07:09:46.430Z,2.02
2018-03-06T07:10:46.343Z,2.11
2018-03-06T07:11:46.262Z,2.08
2018-03-06T07:12:46.177Z,2.15
2018-03-06T07:13:46.090Z,2.06
2018-03-06T07:14:46.004Z,1.99
2018-03-06T07:15:45.952Z,2.11
2018-03-06T07:16:45.837Z,2.00
2018-03-06T07:17:45.750Z,2.13
2018-03-06T07:18:45.669Z,2.06
2018-03-06T07:19:45.580Z,2.11
2018-03-06T07:20:45.494Z,2.14
2018-03-06T07:21:45.413Z,2.20
2018-03-06T07:22:45.321Z,2.20
2018-03-06T07:23:45.238Z,2.26
2018-03-06T07:24:45.156Z,2.25
2018-03-06T07:25:45.068Z,2.29
2018-03-06T07:26:44.980Z,2.33
2018-03-06T07:27:44.898Z,2.26
2018-03-06T07:28:44.810Z,2.43
2018-03-06T07:29:44.729Z,2.36
2018-03-06T07:30:44.641Z,2.44
2018-03-06T07:31:44.565Z,2.50
2018-03-06T07:32:44.472Z,2.50
2018-03-06T07:33:44.390Z,2.51
2018-03-06T07:34:44.299Z,2.62
2018-03-06T07:35:44.215Z,2.53
2018-03-06T07:36:44.131Z,2.60
2018-03-06T07:37:44.046Z,2.71
2018-03-06T07:38:43.960Z,2.62
2018-03-06T07:39:43.876Z,2.71
2018-03-06T07:40:43.791Z,2.75
2018-03-06T07:41:43.708Z,2.77
2018-03-06T07:42:43.621Z,2.74
2018-03-06T07:43:43.536Z,2.77
2018-03-06T07:44:43.453Z,2.69
2018-03-06T07:45:43.368Z,2.74
2018-03-06T07:46:43.282Z,2.79
2018-03-06T07:47:43.198Z,2.79
2018-03-06T07:48:43.116Z,2.69
2018-03-06T07:49:43.032Z,2.62
2018-03-06T07:50:42.945Z,2.62
2018-03-06T07:51:42.860Z,2.64
2018-03-06T07:52:42.776Z,2.69
2018-03-06T07:53:42.690Z,2.72
2018-03-06T07:54:42.607Z,2.79
2018-03-06T07:55:42.540Z,2.77
2018-03-06T07:56:42.439Z,2.89
2018-03-06T07:57:42.373Z,2.83
2018-03-06T07:58:42.267Z,2.93
2018-03-06T07:59:42.183Z,2.93
2018-03-06T08:00:42.099Z,2.93
2018-03-06T08:01:42.013Z,2.89
2018-03-06T08:02:41.930Z,3.01
2018-03-06T08:03:41.845Z,3.05
2018-03-06T08:04:41.767Z,3.11
2018-03-06T08:05:41.677Z,3.18
2018-03-06T08:06:41.592Z,3.18
2018-03-06T08:07:41.507Z,3.05
2018-03-06T08:08:41.435Z,3.18
2018-03-06T08:09:41.338Z,3.26
2018-03-06T08:10:41.255Z,3.13
2018-03-06T08:11:41.223Z,3.21
2018-03-06T08:12:41.089Z,3.25
2018-03-06T08:13:41.004Z,3.26
2018-03-06T08:14:40.919Z,3.32
2018-03-06T08:15:40.837Z,3.37
2018-03-06T08:16:40.751Z,3.29
2018-03-06T08:17:40.669Z,3.25
2018-03-06T08:18:40.581Z,3.31
2018-03-06T08:19:40.498Z,3.34
2018-03-06T08:20:40.411Z,3.29
2018-03-06T08:21:40.328Z,3.32
2018-03-06T08:22:40.283Z,3.34
2018-03-06T08:23:40.161Z,3.36
2018-03-06T08:24:40.076Z,3.31
2018-03-06T08:25:39.994Z,3.44
2018-03-06T08:26:39.909Z,3.44
2018-03-06T08:27:39.822Z,3.45
2018-03-06T08:28:39.744Z,3.44
2018-03-06T08:29:39.659Z,3.62
2018-03-06T08:30:39.570Z,3.59
2018-03-06T08:31:39.488Z,3.65
2018-03-06T08:32:39.405Z,3.63
2018-03-06T08:33:39.322Z,3.76
2018-03-06T08:34:39.238Z,3.78
2018-03-06T08:35:39.156Z,3.77
2018-03-06T08:36:39.072Z,3.76
2018-03-06T08:37:38.992Z,3.80
2018-03-06T08:38:38.904Z,3.84
2018-03-06T08:39:38.816Z,3.86
2018-03-06T08:40:38.734Z,3.77
2018-03-06T08:41:38.656Z,3.81
2018-03-06T08:42:38.566Z,3.83
2018-03-06T08:43:38.483Z,3.83
2018-03-06T08:44:38.399Z,3.92
2018-03-06T08:45:38.315Z,3.94
2018-03-06T08:46:38.232Z,3.96
2018-03-06T08:47:38.147Z,3.98
2018-03-06T08:48:38.070Z,3.99
2018-03-06T08:49:37.981Z,3.99
2018-03-06T08:50:37.943Z,4.06
2018-03-06T08:51:37.815Z,4.13
2018-03-06T08:52:37.739Z,4.06
2018-03-06T08:53:37.647Z,4.10
2018-03-06T08:54:37.587Z,4.12
2018-03-06T08:55:37.485Z,4.13
2018-03-06T08:56:37.400Z,4.22
2018-03-06T08:57:37.316Z,4.17
2018-03-06T08:58:37.236Z,4.14
2018-03-06T08:59:37.150Z,4.30
2018-03-06T09:00:37.066Z,4.10
2018-03-06T09:01:36.988Z,4.08
2018-03-06T09:02:36.900Z,4.24
2018-03-06T09:03:36.823Z,4.30
2018-03-06T09:04:36.734Z,4.37
2018-03-06T09:05:36.652Z,4.34
2018-03-06T09:06:36.568Z,4.38
2018-03-06T09:07:36.484Z,4.37
2018-03-06T09:08:36.419Z,4.48
2018-03-06T09:09:36.320Z,4.53
2018-03-06T09:10:36.235Z,4.62
2018-03-06T09:11:36.153Z,4.62
2018-03-06T09:12:36.071Z,4.71
2018-03-06T09:13:35.989Z,4.59
2018-03-06T09:14:35.905Z,4.63
2018-03-06T09:15:35.823Z,4.66
2018-03-06T09:16:35.742Z,4.68
2018-03-06T09:17:35.664Z,4.60
2018-03-06T09:18:35.586Z,4.63
2018-03-06T09:19:35.492Z,4.63
2018-03-06T09:20:35.410Z,4.60
2018-03-06T09:21:35.327Z,4.59
2018-03-06T09:22:35.244Z,4.58
2018-03-06T09:23:35.210Z,4.40
2018-03-06T09:24:35.081Z,4.35
2018-03-06T09:25:35.001Z,4.42
2018-03-06T09:26:34.915Z,4.34
2018-03-06T09:27:34.831Z,4.24
2018-03-06T09:28:34.752Z,4.24
2018-03-06T09:29:34.669Z,4.24
2018-03-06T09:30:34.583Z,4.24
2018-03-06T09:31:34.501Z,4.30
2018-03-06T09:32:34.421Z,4.31
2018-03-06T09:33:34.337Z,4.16
2018-03-06T09:34:34.256Z,4.20
2018-03-06T09:35:34.172Z,4.32
2018-03-06T09:36:34.107Z,4.37
2018-03-06T09:37:34.010Z,4.32
2018-03-06T09:38:33.926Z,4.40
2018-03-06T09:39:33.842Z,4.48
2018-03-06T09:40:33.779Z,4.53
2018-03-06T09:41:33.687Z,4.56
2018-03-06T09:42:33.598Z,4.62
2018-03-06T09:43:33.514Z,4.60
2018-03-06T09:44:33.440Z,4.70
2018-03-06T09:45:33.351Z,4.71
2018-03-06T09:46:33.263Z,4.78
2018-03-06T09:47:33.185Z,4.87
2018-03-06T09:48:33.102Z,4.94
2018-03-06T09:49:33.019Z,5.02
2018-03-06T09:50:32.932Z,5.07
2018-03-06T09:51:32.854Z,5.08
2018-03-06T09:52:32.768Z,5.05
2018-03-06T09:53:32.700Z,5.07
2018-03-06T09:54:32.607Z,5.00
2018-03-06T09:55:32.532Z,4.92
2018-03-06T09:56:32.441Z,4.80
2018-03-06T09:57:32.363Z,4.84
2018-03-06T09:58:32.276Z,4.87
2018-03-06T09:59:32.194Z,4.87
2018-03-06T10:00:32.116Z,4.87
2018-03-06T10:01:32.031Z,4.75
2018-03-06T10:02:31.950Z,4.89
2018-03-06T10:03:31.868Z,4.93
2018-03-06T10:04:31.783Z,4.99
2018-03-06T10:05:31.703Z,4.99
2018-03-06T10:06:31.620Z,4.99
2018-03-06T10:07:31.581Z,4.96
2018-03-06T10:08:31.497Z,4.99
2018-03-06T10:09:31.417Z,4.99
2018-03-06T10:10:31.330Z,4.90
2018-03-06T10:11:31.248Z,4.94
2018-03-06T10:12:31.167Z,4.96
2018-03-06T10:13:31.085Z,4.86
2018-03-06T10:14:31.002Z,4.99
2018-03-06T10:15:30.919Z,4.94
2018-03-06T10:16:30.839Z,4.96
2018-03-06T10:17:30.759Z,5.07
2018-03-06T10:18:30.674Z,5.07
2018-03-06T10:19:30.594Z,5.05
2018-03-06T10:20:30.514Z,5.00
2018-03-06T10:21:30.430Z,5.07
2018-03-06T10:22:30.384Z,5.00
2018-03-06T10:23:30.265Z,4.93
2018-03-06T10:24:30.190Z,5.05
2018-03-06T10:25:30.122Z,5.11
2018-03-06T10:26:30.041Z,5.15
2018-03-06T10:27:29.962Z,5.23
2018-03-06T10:28:29.844Z,5.25
2018-03-06T10:29:29.768Z,5.28
2018-03-06T10:30:29.677Z,5.39
2018-03-06T10:31:29.570Z,5.30
2018-03-06T10:32:29.489Z,5.33
2018-03-06T10:33:29.405Z,5.50
2018-03-06T10:34:29.328Z,5.41
2018-03-06T10:35:29.242Z,5.35
2018-03-06T10:36:29.197Z,5.43
2018-03-06T10:37:29.104Z,5.35
2018-03-06T10:38:29.034Z,5.44
2018-03-06T10:39:29.006Z,5.46
2018-03-06T10:40:28.874Z,5.38
2018-03-06T10:41:28.785Z,5.47
2018-03-06T10:42:28.704Z,5.51
2018-03-06T10:43:28.634Z,5.47
2018-03-06T10:44:28.521Z,5.46
2018-03-06T10:45:28.482Z,5.39
2018-03-06T10:46:28.404Z,5.43
2018-03-06T10:47:28.314Z,5.46
2018-03-06T10:48:28.232Z,5.35
2018-03-06T10:49:28.153Z,5.39
2018-03-06T10:50:28.069Z,5.44
2018-03-06T10:51:27.979Z,5.43
2018-03-06T10:52:27.900Z,5.56
2018-03-06T10:53:27.792Z,5.72
2018-03-06T10:54:27.721Z,5.69
2018-03-06T10:55:27.609Z,5.80
2018-03-06T10:56:27.529Z,5.80
2018-03-06T10:57:27.496Z,5.86
2018-03-06T10:58:27.435Z,5.97
2018-03-06T10:59:27.324Z,6.05
2018-03-06T11:00:27.244Z,6.12
2018-03-06T11:01:27.162Z,6.27
2018-03-06T11:02:27.088Z,6.20
2018-03-06T11:03:27.003Z,6.33
2018-03-06T11:04:26.947Z,6.39
2018-03-06T11:05:26.836Z,6.49
2018-03-06T11:06:26.753Z,6.30
2018-03-06T11:07:26.683Z,6.48
2018-03-06T11:08:26.595Z,6.46
2018-03-06T11:09:26.520Z,6.49
2018-03-06T11:10:26.432Z,6.56
2018-03-06T11:11:26.356Z,6.69
2018-03-06T11:12:26.264Z,6.79
2018-03-06T11:13:26.192Z,6.84
2018-03-06T11:14:26.113Z,6.95
2018-03-06T11:15:26.040Z,7.06
2018-03-06T11:16:25.950Z,7.32
2018-03-06T11:17:25.867Z,7.42
2018-03-06T11:18:25.799Z,7.58
2018-03-06T11:19:25.707Z,7.80
2018-03-06T11:20:25.627Z,7.76
2018-03-06T11:21:25.549Z,8.03
2018-03-06T11:22:25.471Z,8.03
2018-03-06T11:23:25.385Z,8.15
2018-03-06T11:24:25.307Z,8.19
2018-03-06T11:25:25.196Z,8.26
2018-03-06T11:26:25.108Z,8.23
2018-03-06T11:27:25.031Z,8.28
2018-03-06T11:28:24.956Z,8.48
2018-03-06T11:29:24.875Z,8.48
2018-03-06T11:30:24.794Z,8.73
2018-03-06T11:31:24.713Z,8.81
2018-03-06T11:32:24.634Z,8.84
2018-03-06T11:33:24.557Z,8.78
2018-03-06T11:34:24.476Z,8.92
2018-03-06T11:35:24.440Z,8.95
2018-03-06T11:36:24.324Z,8.91
2018-03-06T11:37:24.245Z,8.95
2018-03-06T11:38:24.165Z,9.06
2018-03-06T11:39:24.085Z,8.97
2018-03-06T11:40:24.007Z,8.76
2018-03-06T11:41:23.934Z,8.85
2018-03-06T11:42:23.916Z,8.92
2018-03-06T11:43:23.774Z,8.95
2018-03-06T11:44:23.704Z,8.92
2018-03-06T11:45:23.617Z,9.06
2018-03-06T11:46:23.611Z,9.10
2018-03-06T11:47:23.462Z,9.11
2018-03-06T11:48:23.387Z,9.11
2018-03-06T11:49:23.309Z,8.99
2018-03-06T11:50:23.230Z,9.00
2018-03-06T11:51:23.153Z,9.13
2018-03-06T11:52:23.080Z,9.03
2018-03-06T11:53:22.999Z,9.06
2018-03-06T11:54:22.925Z,9.10
2018-03-06T11:55:22.849Z,8.89
2018-03-06T11:56:22.766Z,8.91
2018-03-06T11:57:22.688Z,8.97
2018-03-06T11:58:22.612Z,8.79
2018-03-06T11:59:22.533Z,8.49
2018-03-06T12:00:22.455Z,8.36
2018-03-06T12:01:22.384Z,8.46
2018-03-06T12:02:22.302Z,8.34
2018-03-06T12:03:22.222Z,8.45
2018-03-06T12:04:22.147Z,8.60
2018-03-06T12:05:22.068Z,8.44
2018-03-06T12:06:21.988Z,8.48
2018-03-06T12:07:21.915Z,8.61
2018-03-06T12:08:21.833Z,8.66
2018-03-06T12:09:21.756Z,8.71
2018-03-06T12:10:21.680Z,8.70
2018-03-06T12:11:21.604Z,8.66
2018-03-06T12:12:21.526Z,8.58
2018-03-06T12:13:21.444Z,8.52
2018-03-06T12:14:21.364Z,8.46
2018-03-06T12:15:21.287Z,8.30
2018-03-06T12:16:21.221Z,8.31
2018-03-06T12:17:21.134Z,8.26
2018-03-06T12:18:21.057Z,8.19
2018-03-06T12:19:20.976Z,8.15
2018-03-06T12:20:20.896Z,8.20
2018-03-06T12:21:20.821Z,8.08
2018-03-06T12:22:20.741Z,8.06
2018-03-06T12:23:20.672Z,8.00
2018-03-06T12:24:20.583Z,8.05
2018-03-06T12:25:20.505Z,8.09
2018-03-06T12:26:20.425Z,8.12
2018-03-06T12:27:20.350Z,8.18
2018-03-06T12:28:20.267Z,8.13
2018-03-06T12:29:20.189Z,8.26
2018-03-06T12:30:20.108Z,8.23
2018-03-06T12:31:20.033Z,8.26
2018-03-06T12:32:19.956Z,8.34
2018-03-06T12:33:19.873Z,8.51
2018-03-06T12:34:19.795Z,8.55
2018-03-06T12:35:19.717Z,8.58
2018-03-06T12:36:19.636Z,8.61
2018-03-06T12:37:19.561Z,8.70
2018-03-06T12:38:19.481Z,8.71
2018-03-06T12:39:19.401Z,8.79
2018-03-06T12:40:19.325Z,8.74
2018-03-06T12:41:19.256Z,8.94
2018-03-06T12:42:19.165Z,9.08
2018-03-06T12:43:19.084Z,9.10
2018-03-06T12:44:19.007Z,9.19
2018-03-06T12:45:18.929Z,9.29
2018-03-06T12:46:18.873Z,9.25
2018-03-06T12:47:18.771Z,9.26
2018-03-06T12:48:18.692Z,9.21
2018-03-06T12:49:18.623Z,9.04
2018-03-06T12:50:18.535Z,8.88
2018-03-06T12:51:18.459Z,8.73
2018-03-06T12:52:18.385Z,8.69
2018-03-06T12:53:18.302Z,8.82
2018-03-06T12:54:18.238Z,8.64
2018-03-06T12:55:18.177Z,8.51
2018-03-06T12:56:18.076Z,8.49
2018-03-06T12:57:17.990Z,8.48
2018-03-06T12:58:17.910Z,8.46
2018-03-06T12:59:17.831Z,8.38
2018-03-06T13:00:17.753Z,8.36
2018-03-06T13:01:17.675Z,8.27
2018-03-06T13:02:17.597Z,8.12
2018-03-06T13:03:17.516Z,8.13
2018-03-06T13:04:17.440Z,7.95
2018-03-06T13:05:17.360Z,8.01
2018-03-06T13:06:17.282Z,7.95
2018-03-06T13:07:17.205Z,7.77
2018-03-06T13:08:17.128Z,7.72
2018-03-06T13:09:17.051Z,7.79
2018-03-06T13:10:16.968Z,7.80
2018-03-06T13:11:16.890Z,7.82
2018-03-06T13:12:16.815Z,7.79
2018-03-06T13:13:16.758Z,7.80
2018-03-06T13:14:16.651Z,7.93
2018-03-06T13:15:16.577Z,8.05
2018-03-06T13:16:16.493Z,8.18
2018-03-06T13:17:16.424Z,8.19